sensor_id;sensor_type;location;lat;lon;timestamp;P1;durP1;ratioP1;P2;durP2;ratioP2
33206;SDS011;19565;46.602;11.534;2023-08-24T00:01:45;13.38;;;12.40;;
33206;SDS011;19565;46.602;11.534;2023-08-24T00:04:13;11.75;;;10.93;;
33206;SDS011;19565;46.602;11.534;2023-08-24T00:06:41;12.38;;;11.48;;
33206;SDS011;19565;46.602;11.534;2023-08-24T00:09:09;12.85;;;11.85;;
33206;SDS011;19565;46.602;11.534;2023-08-24T00:11:37;11.68;;;10.98;;
33206;SDS011;19565;46.602;11.534;2023-08-24T00:14:05;12.85;;;11.73;;
33206;SDS011;19565;46.602;11.534;2023-08-24T00:16:33;11.95;;;11.15;;
33206;SDS011;19565;46.602;11.534;2023-08-24T00:19:02;12.23;;;11.02;;
33206;SDS011;19565;46.602;11.534;2023-08-24T00:21:30;12.82;;;11.93;;
33206;SDS011;19565;46.602;11.534;2023-08-24T00:23:58;11.75;;;10.80;;
33206;SDS011;19565;46.602;11.534;2023-08-24T00:26:26;12.63;;;11.55;;
33206;SDS011;19565;46.602;11.534;2023-08-24T00:28:54;11.07;;;10.30;;
33206;SDS011;19565;46.602;11.534;2023-08-24T00:31:22;12.73;;;11.73;;
33206;SDS011;19565;46.602;11.534;2023-08-24T00:33:50;11.55;;;10.75;;
33206;SDS011;19565;46.602;11.534;2023-08-24T00:36:19;10.50;;;9.63;;
33206;SDS011;19565;46.602;11.534;2023-08-24T00:38:49;8.85;;;8.25;;
33206;SDS011;19565;46.602;11.534;2023-08-24T00:41:19;11.50;;;10.50;;
33206;SDS011;19565;46.602;11.534;2023-08-24T00:43:48;10.00;;;9.32;;
33206;SDS011;19565;46.602;11.534;2023-08-24T00:46:16;10.20;;;9.50;;
33206;SDS011;19565;46.602;11.534;2023-08-24T00:48:45;10.60;;;9.90;;
33206;SDS011;19565;46.602;11.534;2023-08-24T00:51:13;10.40;;;9.70;;
33206;SDS011;19565;46.602;11.534;2023-08-24T00:53:43;11.60;;;10.73;;
33206;SDS011;19565;46.602;11.534;2023-08-24T00:56:12;12.40;;;10.80;;
33206;SDS011;19565;46.602;11.534;2023-08-24T00:58:40;12.55;;;11.57;;
33206;SDS011;19565;46.602;11.534;2023-08-24T01:01:08;12.27;;;11.48;;
33206;SDS011;19565;46.602;11.534;2023-08-24T01:03:36;13.40;;;11.82;;
33206;SDS011;19565;46.602;11.534;2023-08-24T01:06:05;13.52;;;12.18;;
33206;SDS011;19565;46.602;11.534;2023-08-24T01:08:33;12.32;;;11.52;;
33206;SDS011;19565;46.602;11.534;2023-08-24T01:11:07;13.43;;;12.43;;
33206;SDS011;19565;46.602;11.534;2023-08-24T01:13:46;11.65;;;10.60;;
33206;SDS011;19565;46.602;11.534;2023-08-24T01:16:18;9.82;;;9.02;;
33206;SDS011;19565;46.602;11.534;2023-08-24T01:18:54;9.10;;;8.40;;
33206;SDS011;19565;46.602;11.534;2023-08-24T01:21:22;8.50;;;7.93;;
33206;SDS011;19565;46.602;11.534;2023-08-24T01:23:53;8.43;;;7.82;;
33206;SDS011;19565;46.602;11.534;2023-08-24T01:26:32;10.45;;;9.25;;
33206;SDS011;19565;46.602;11.534;2023-08-24T01:29:01;9.18;;;8.48;;
33206;SDS011;19565;46.602;11.534;2023-08-24T01:31:31;8.65;;;8.02;;
33206;SDS011;19565;46.602;11.534;2023-08-24T01:33:59;10.05;;;9.25;;
33206;SDS011;19565;46.602;11.534;2023-08-24T01:36:27;10.95;;;9.90;;
33206;SDS011;19565;46.602;11.534;2023-08-24T01:38:58;10.40;;;9.70;;
33206;SDS011;19565;46.602;11.534;2023-08-24T01:41:36;9.95;;;9.25;;
33206;SDS011;19565;46.602;11.534;2023-08-24T01:44:05;10.80;;;10.07;;
33206;SDS011;19565;46.602;11.534;2023-08-24T01:46:35;10.93;;;10.13;;
33206;SDS011;19565;46.602;11.534;2023-08-24T01:49:05;9.65;;;8.75;;
33206;SDS011;19565;46.602;11.534;2023-08-24T01:51:34;8.68;;;7.75;;
33206;SDS011;19565;46.602;11.534;2023-08-24T01:54:02;7.60;;;6.97;;
33206;SDS011;19565;46.602;11.534;2023-08-24T01:56:31;7.30;;;6.70;;
33206;SDS011;19565;46.602;11.534;2023-08-24T01:59:00;7.15;;;6.55;;
33206;SDS011;19565;46.602;11.534;2023-08-24T02:01:28;6.07;;;5.53;;
33206;SDS011;19565;46.602;11.534;2023-08-24T02:03:56;7.40;;;6.68;;
33206;SDS011;19565;46.602;11.534;2023-08-24T02:06:25;7.53;;;6.28;;
33206;SDS011;19565;46.602;11.534;2023-08-24T02:08:53;6.20;;;5.60;;
33206;SDS011;19565;46.602;11.534;2023-08-24T02:11:21;8.23;;;6.53;;
33206;SDS011;19565;46.602;11.534;2023-08-24T02:13:49;7.88;;;7.28;;
33206;SDS011;19565;46.602;11.534;2023-08-24T02:16:18;6.75;;;6.25;;
33206;SDS011;19565;46.602;11.534;2023-08-24T02:18:46;6.97;;;6.30;;
33206;SDS011;19565;46.602;11.534;2023-08-24T02:21:14;6.47;;;5.70;;
33206;SDS011;19565;46.602;11.534;2023-08-24T02:23:42;5.45;;;5.00;;
33206;SDS011;19565;46.602;11.534;2023-08-24T02:26:10;6.97;;;6.38;;
33206;SDS011;19565;46.602;11.534;2023-08-24T02:28:39;5.97;;;5.15;;
33206;SDS011;19565;46.602;11.534;2023-08-24T02:31:07;6.10;;;5.60;;
33206;SDS011;19565;46.602;11.534;2023-08-24T02:33:36;8.15;;;7.35;;
33206;SDS011;19565;46.602;11.534;2023-08-24T02:36:04;6.90;;;6.30;;
33206;SDS011;19565;46.602;11.534;2023-08-24T02:38:32;8.13;;;6.60;;
33206;SDS011;19565;46.602;11.534;2023-08-24T02:41:01;7.72;;;5.93;;
33206;SDS011;19565;46.602;11.534;2023-08-24T02:43:30;6.18;;;5.68;;
33206;SDS011;19565;46.602;11.534;2023-08-24T02:46:01;8.68;;;5.90;;
33206;SDS011;19565;46.602;11.534;2023-08-24T02:48:31;8.73;;;5.85;;
33206;SDS011;19565;46.602;11.534;2023-08-24T02:51:01;6.70;;;6.20;;
33206;SDS011;19565;46.602;11.534;2023-08-24T02:53:30;13.13;;;5.90;;
33206;SDS011;19565;46.602;11.534;2023-08-24T02:55:59;5.47;;;5.03;;
33206;SDS011;19565;46.602;11.534;2023-08-24T02:58:27;7.45;;;6.50;;
33206;SDS011;19565;46.602;11.534;2023-08-24T03:00:55;7.60;;;6.68;;
33206;SDS011;19565;46.602;11.534;2023-08-24T03:03:23;6.95;;;6.32;;
33206;SDS011;19565;46.602;11.534;2023-08-24T03:05:53;6.60;;;5.88;;
33206;SDS011;19565;46.602;11.534;2023-08-24T03:08:23;5.97;;;5.47;;
33206;SDS011;19565;46.602;11.534;2023-08-24T03:10:51;5.35;;;4.95;;
33206;SDS011;19565;46.602;11.534;2023-08-24T03:13:19;7.25;;;6.55;;
33206;SDS011;19565;46.602;11.534;2023-08-24T03:15:47;10.07;;;6.32;;
33206;SDS011;19565;46.602;11.534;2023-08-24T03:18:16;6.18;;;5.68;;
33206;SDS011;19565;46.602;11.534;2023-08-24T03:20:44;6.22;;;5.65;;
33206;SDS011;19565;46.602;11.534;2023-08-24T03:23:13;8.80;;;7.95;;
33206;SDS011;19565;46.602;11.534;2023-08-24T03:25:42;16.20;;;5.95;;
33206;SDS011;19565;46.602;11.534;2023-08-24T03:28:10;6.78;;;6.22;;
33206;SDS011;19565;46.602;11.534;2023-08-24T03:30:38;9.40;;;5.72;;
33206;SDS011;19565;46.602;11.534;2023-08-24T03:33:12;3.88;;;3.58;;
33206;SDS011;19565;46.602;11.534;2023-08-24T03:35:40;5.00;;;4.50;;
33206;SDS011;19565;46.602;11.534;2023-08-24T03:38:08;6.47;;;5.15;;
33206;SDS011;19565;46.602;11.534;2023-08-24T03:40:36;4.15;;;3.75;;
33206;SDS011;19565;46.602;11.534;2023-08-24T03:43:06;4.80;;;4.18;;
33206;SDS011;19565;46.602;11.534;2023-08-24T03:45:34;4.90;;;4.50;;
33206;SDS011;19565;46.602;11.534;2023-08-24T03:48:02;4.35;;;3.58;;
33206;SDS011;19565;46.602;11.534;2023-08-24T03:50:30;5.10;;;3.42;;
33206;SDS011;19565;46.602;11.534;2023-08-24T03:52:58;3.25;;;2.67;;
33206;SDS011;19565;46.602;11.534;2023-08-24T03:55:26;12.20;;;4.65;;
33206;SDS011;19565;46.602;11.534;2023-08-24T03:57:54;6.75;;;3.85;;
33206;SDS011;19565;46.602;11.534;2023-08-24T04:00:24;6.32;;;3.67;;
33206;SDS011;19565;46.602;11.534;2023-08-24T04:02:52;3.50;;;3.20;;
33206;SDS011;19565;46.602;11.534;2023-08-24T04:05:20;4.65;;;3.92;;
33206;SDS011;19565;46.602;11.534;2023-08-24T04:07:48;3.45;;;3.15;;
33206;SDS011;19565;46.602;11.534;2023-08-24T04:10:17;7.93;;;4.13;;
33206;SDS011;19565;46.602;11.534;2023-08-24T04:12:45;3.88;;;2.92;;
33206;SDS011;19565;46.602;11.534;2023-08-24T04:15:12;5.55;;;3.92;;
33206;SDS011;19565;46.602;11.534;2023-08-24T04:17:42;3.50;;;2.78;;
33206;SDS011;19565;46.602;11.534;2023-08-24T04:20:10;4.70;;;3.15;;
33206;SDS011;19565;46.602;11.534;2023-08-24T04:22:39;9.35;;;2.85;;
33206;SDS011;19565;46.602;11.534;2023-08-24T04:25:07;5.22;;;2.92;;
33206;SDS011;19565;46.602;11.534;2023-08-24T04:27:35;5.47;;;3.20;;
33206;SDS011;19565;46.602;11.534;2023-08-24T04:30:04;8.73;;;3.30;;
33206;SDS011;19565;46.602;11.534;2023-08-24T04:32:37;5.00;;;3.20;;
33206;SDS011;19565;46.602;11.534;2023-08-24T04:35:07;4.75;;;3.00;;
33206;SDS011;19565;46.602;11.534;2023-08-24T04:37:36;5.78;;;2.47;;
33206;SDS011;19565;46.602;11.534;2023-08-24T04:40:05;3.35;;;2.67;;
33206;SDS011;19565;46.602;11.534;2023-08-24T04:42:33;5.95;;;3.35;;
33206;SDS011;19565;46.602;11.534;2023-08-24T04:45:01;3.75;;;2.92;;
33206;SDS011;19565;46.602;11.534;2023-08-24T04:47:29;4.35;;;3.58;;
33206;SDS011;19565;46.602;11.534;2023-08-24T04:49:57;5.25;;;3.92;;
33206;SDS011;19565;46.602;11.534;2023-08-24T04:52:27;5.25;;;4.10;;
33206;SDS011;19565;46.602;11.534;2023-08-24T04:54:55;5.00;;;4.50;;
33206;SDS011;19565;46.602;11.534;2023-08-24T04:57:23;4.60;;;3.17;;
33206;SDS011;19565;46.602;11.534;2023-08-24T04:59:51;5.55;;;2.47;;
33206;SDS011;19565;46.602;11.534;2023-08-24T05:02:19;3.50;;;2.67;;
33206;SDS011;19565;46.602;11.534;2023-08-24T05:04:47;3.70;;;2.47;;
33206;SDS011;19565;46.602;11.534;2023-08-24T05:07:15;4.80;;;2.55;;
33206;SDS011;19565;46.602;11.534;2023-08-24T05:09:45;3.53;;;2.95;;
33206;SDS011;19565;46.602;11.534;2023-08-24T05:12:13;3.72;;;3.00;;
33206;SDS011;19565;46.602;11.534;2023-08-24T05:14:41;3.88;;;2.80;;
33206;SDS011;19565;46.602;11.534;2023-08-24T05:17:09;5.03;;;2.80;;
33206;SDS011;19565;46.602;11.534;2023-08-24T05:19:37;6.63;;;4.10;;
33206;SDS011;19565;46.602;11.534;2023-08-24T05:22:05;5.72;;;3.88;;
33206;SDS011;19565;46.602;11.534;2023-08-24T05:24:33;3.95;;;3.55;;
33206;SDS011;19565;46.602;11.534;2023-08-24T05:27:02;5.50;;;3.42;;
33206;SDS011;19565;46.602;11.534;2023-08-24T05:29:30;4.45;;;3.78;;
33206;SDS011;19565;46.602;11.534;2023-08-24T05:31:58;4.78;;;4.30;;
33206;SDS011;19565;46.602;11.534;2023-08-24T05:34:26;3.58;;;3.28;;
33206;SDS011;19565;46.602;11.534;2023-08-24T05:36:54;8.25;;;4.80;;
33206;SDS011;19565;46.602;11.534;2023-08-24T05:39:22;8.02;;;3.95;;
33206;SDS011;19565;46.602;11.534;2023-08-24T05:41:50;7.20;;;4.28;;
33206;SDS011;19565;46.602;11.534;2023-08-24T05:44:20;4.78;;;4.15;;
33206;SDS011;19565;46.602;11.534;2023-08-24T05:46:48;5.45;;;4.50;;
33206;SDS011;19565;46.602;11.534;2023-08-24T05:49:16;5.07;;;4.47;;
33206;SDS011;19565;46.602;11.534;2023-08-24T05:51:44;4.03;;;3.58;;
33206;SDS011;19565;46.602;11.534;2023-08-24T05:54:12;8.05;;;5.45;;
33206;SDS011;19565;46.602;11.534;2023-08-24T05:56:44;9.45;;;4.40;;
33206;SDS011;19565;46.602;11.534;2023-08-24T05:59:13;4.63;;;4.05;;
33206;SDS011;19565;46.602;11.534;2023-08-24T06:01:42;10.80;;;9.48;;
33206;SDS011;19565;46.602;11.534;2023-08-24T06:04:10;11.60;;;10.75;;
33206;SDS011;19565;46.602;11.534;2023-08-24T06:06:38;11.60;;;10.30;;
33206;SDS011;19565;46.602;11.534;2023-08-24T06:09:06;11.30;;;10.60;;
33206;SDS011;19565;46.602;11.534;2023-08-24T06:11:36;9.00;;;8.40;;
33206;SDS011;19565;46.602;11.534;2023-08-24T06:14:04;10.90;;;9.90;;
33206;SDS011;19565;46.602;11.534;2023-08-24T06:16:32;9.20;;;8.55;;
33206;SDS011;19565;46.602;11.534;2023-08-24T06:19:01;17.08;;;10.95;;
33206;SDS011;19565;46.602;11.534;2023-08-24T06:21:29;9.90;;;9.13;;
33206;SDS011;19565;46.602;11.534;2023-08-24T06:23:57;12.55;;;11.60;;
33206;SDS011;19565;46.602;11.534;2023-08-24T06:26:27;10.88;;;10.02;;
33206;SDS011;19565;46.602;11.534;2023-08-24T06:28:55;13.60;;;12.35;;
33206;SDS011;19565;46.602;11.534;2023-08-24T06:31:23;12.95;;;9.60;;
33206;SDS011;19565;46.602;11.534;2023-08-24T06:33:51;11.75;;;10.85;;
33206;SDS011;19565;46.602;11.534;2023-08-24T06:36:21;11.77;;;10.75;;
33206;SDS011;19565;46.602;11.534;2023-08-24T06:38:49;10.68;;;9.77;;
33206;SDS011;19565;46.602;11.534;2023-08-24T06:41:19;11.07;;;10.27;;
33206;SDS011;19565;46.602;11.534;2023-08-24T06:43:47;10.30;;;9.45;;
33206;SDS011;19565;46.602;11.534;2023-08-24T06:46:15;12.85;;;11.68;;
33206;SDS011;19565;46.602;11.534;2023-08-24T06:48:43;16.58;;;10.73;;
33206;SDS011;19565;46.602;11.534;2023-08-24T06:51:11;11.80;;;10.98;;
33206;SDS011;19565;46.602;11.534;2023-08-24T06:53:41;14.52;;;13.32;;
33206;SDS011;19565;46.602;11.534;2023-08-24T06:56:10;13.80;;;12.98;;
33206;SDS011;19565;46.602;11.534;2023-08-24T06:58:38;15.27;;;14.18;;
33206;SDS011;19565;46.602;11.534;2023-08-24T07:01:06;14.82;;;13.63;;
33206;SDS011;19565;46.602;11.534;2023-08-24T07:03:34;18.73;;;17.63;;
33206;SDS011;19565;46.602;11.534;2023-08-24T07:06:02;19.42;;;18.38;;
33206;SDS011;19565;46.602;11.534;2023-08-24T07:08:32;21.08;;;19.85;;
33206;SDS011;19565;46.602;11.534;2023-08-24T07:11:05;23.83;;;22.33;;
33206;SDS011;19565;46.602;11.534;2023-08-24T07:13:33;22.83;;;21.52;;
33206;SDS011;19565;46.602;11.534;2023-08-24T07:16:02;22.80;;;21.48;;
33206;SDS011;19565;46.602;11.534;2023-08-24T07:18:30;26.13;;;24.55;;
33206;SDS011;19565;46.602;11.534;2023-08-24T07:20:58;24.52;;;23.27;;
33206;SDS011;19565;46.602;11.534;2023-08-24T07:23:26;26.75;;;25.20;;
33206;SDS011;19565;46.602;11.534;2023-08-24T07:25:54;29.38;;;27.88;;
33206;SDS011;19565;46.602;11.534;2023-08-24T07:28:24;29.38;;;27.88;;
33206;SDS011;19565;46.602;11.534;2023-08-24T07:30:52;31.45;;;29.95;;
33206;SDS011;19565;46.602;11.534;2023-08-24T07:33:22;32.33;;;30.73;;
33206;SDS011;19565;46.602;11.534;2023-08-24T07:35:51;37.92;;;35.97;;
33206;SDS011;19565;46.602;11.534;2023-08-24T07:38:19;37.08;;;35.05;;
33206;SDS011;19565;46.602;11.534;2023-08-24T07:40:47;41.67;;;39.72;;
33206;SDS011;19565;46.602;11.534;2023-08-24T07:43:15;42.72;;;40.67;;
33206;SDS011;19565;46.602;11.534;2023-08-24T07:45:44;43.35;;;41.28;;
33206;SDS011;19565;46.602;11.534;2023-08-24T07:48:12;47.65;;;45.35;;
33206;SDS011;19565;46.602;11.534;2023-08-24T07:50:41;50.10;;;47.72;;
33206;SDS011;19565;46.602;11.534;2023-08-24T07:53:09;47.92;;;45.67;;
33206;SDS011;19565;46.602;11.534;2023-08-24T07:55:37;45.13;;;43.13;;
33206;SDS011;19565;46.602;11.534;2023-08-24T07:58:05;45.10;;;42.65;;
33206;SDS011;19565;46.602;11.534;2023-08-24T08:00:33;44.45;;;42.47;;
33206;SDS011;19565;46.602;11.534;2023-08-24T08:03:02;46.40;;;44.20;;
33206;SDS011;19565;46.602;11.534;2023-08-24T08:05:31;49.08;;;46.20;;
33206;SDS011;19565;46.602;11.534;2023-08-24T08:07:59;48.58;;;46.38;;
33206;SDS011;19565;46.602;11.534;2023-08-24T08:10:27;50.75;;;48.50;;
33206;SDS011;19565;46.602;11.534;2023-08-24T08:12:55;58.10;;;55.45;;
33206;SDS011;19565;46.602;11.534;2023-08-24T08:15:23;55.75;;;53.03;;
33206;SDS011;19565;46.602;11.534;2023-08-24T08:17:52;55.92;;;53.33;;
33206;SDS011;19565;46.602;11.534;2023-08-24T08:20:22;59.72;;;56.55;;
33206;SDS011;19565;46.602;11.534;2023-08-24T08:22:50;62.70;;;59.17;;
33206;SDS011;19565;46.602;11.534;2023-08-24T08:25:18;59.15;;;56.17;;
33206;SDS011;19565;46.602;11.534;2023-08-24T08:27:48;60.50;;;57.00;;
33206;SDS011;19565;46.602;11.534;2023-08-24T08:30:17;60.22;;;57.42;;
33206;SDS011;19565;46.602;11.534;2023-08-24T08:32:46;55.97;;;53.45;;
33206;SDS011;19565;46.602;11.534;2023-08-24T08:35:15;58.30;;;55.65;;
33206;SDS011;19565;46.602;11.534;2023-08-24T08:37:44;61.05;;;58.17;;
33206;SDS011;19565;46.602;11.534;2023-08-24T08:40:12;61.13;;;58.15;;
33206;SDS011;19565;46.602;11.534;2023-08-24T08:42:40;59.53;;;56.85;;
33206;SDS011;19565;46.602;11.534;2023-08-24T08:45:09;62.67;;;59.67;;
33206;SDS011;19565;46.602;11.534;2023-08-24T08:47:38;60.75;;;57.95;;
33206;SDS011;19565;46.602;11.534;2023-08-24T08:50:08;63.08;;;60.17;;
33206;SDS011;19565;46.602;11.534;2023-08-24T08:52:36;65.03;;;61.72;;
33206;SDS011;19565;46.602;11.534;2023-08-24T08:55:06;66.13;;;62.97;;
33206;SDS011;19565;46.602;11.534;2023-08-24T08:57:36;70.53;;;67.00;;
33206;SDS011;19565;46.602;11.534;2023-08-24T09:00:06;68.28;;;65.05;;
33206;SDS011;19565;46.602;11.534;2023-08-24T09:02:36;69.70;;;66.47;;
33206;SDS011;19565;46.602;11.534;2023-08-24T09:05:05;69.88;;;66.78;;
33206;SDS011;19565;46.602;11.534;2023-08-24T09:07:34;73.97;;;70.72;;
33206;SDS011;19565;46.602;11.534;2023-08-24T09:10:02;70.35;;;67.05;;
33206;SDS011;19565;46.602;11.534;2023-08-24T09:12:34;70.22;;;67.05;;
33206;SDS011;19565;46.602;11.534;2023-08-24T09:15:03;70.90;;;67.60;;
33206;SDS011;19565;46.602;11.534;2023-08-24T09:17:32;71.22;;;67.90;;
33206;SDS011;19565;46.602;11.534;2023-08-24T09:20:06;73.30;;;69.82;;
33206;SDS011;19565;46.602;11.534;2023-08-24T09:22:36;77.18;;;72.07;;
33206;SDS011;19565;46.602;11.534;2023-08-24T09:25:09;72.38;;;69.07;;
33206;SDS011;19565;46.602;11.534;2023-08-24T09:27:38;74.75;;;71.18;;
33206;SDS011;19565;46.602;11.534;2023-08-24T09:30:08;75.57;;;72.28;;
33206;SDS011;19565;46.602;11.534;2023-08-24T09:32:36;74.25;;;70.97;;
33206;SDS011;19565;46.602;11.534;2023-08-24T09:35:07;77.22;;;73.72;;
33206;SDS011;19565;46.602;11.534;2023-08-24T09:37:37;77.82;;;74.15;;
33206;SDS011;19565;46.602;11.534;2023-08-24T09:40:07;76.00;;;71.82;;
33206;SDS011;19565;46.602;11.534;2023-08-24T09:42:40;75.97;;;72.50;;
33206;SDS011;19565;46.602;11.534;2023-08-24T09:45:11;71.38;;;68.18;;
33206;SDS011;19565;46.602;11.534;2023-08-24T09:47:44;74.80;;;71.25;;
33206;SDS011;19565;46.602;11.534;2023-08-24T09:50:13;76.22;;;72.30;;
33206;SDS011;19565;46.602;11.534;2023-08-24T09:52:41;78.07;;;74.57;;
33206;SDS011;19565;46.602;11.534;2023-08-24T09:55:17;78.75;;;74.70;;
33206;SDS011;19565;46.602;11.534;2023-08-24T09:57:50;79.60;;;75.85;;
33206;SDS011;19565;46.602;11.534;2023-08-24T10:00:23;78.70;;;75.10;;
33206;SDS011;19565;46.602;11.534;2023-08-24T10:02:53;78.28;;;74.72;;
33206;SDS011;19565;46.602;11.534;2023-08-24T10:05:23;81.15;;;77.45;;
33206;SDS011;19565;46.602;11.534;2023-08-24T10:08:07;80.38;;;76.40;;
33206;SDS011;19565;46.602;11.534;2023-08-24T10:10:36;80.20;;;76.35;;
33206;SDS011;19565;46.602;11.534;2023-08-24T10:13:11;80.57;;;76.32;;
33206;SDS011;19565;46.602;11.534;2023-08-24T10:15:46;79.40;;;75.22;;
33206;SDS011;19565;46.602;11.534;2023-08-24T10:18:15;80.10;;;76.13;;
33206;SDS011;19565;46.602;11.534;2023-08-24T10:20:43;79.35;;;75.68;;
33206;SDS011;19565;46.602;11.534;2023-08-24T10:23:12;78.88;;;75.25;;
33206;SDS011;19565;46.602;11.534;2023-08-24T10:25:43;78.70;;;75.28;;
33206;SDS011;19565;46.602;11.534;2023-08-24T10:28:14;79.85;;;76.35;;
33206;SDS011;19565;46.602;11.534;2023-08-24T10:30:43;83.43;;;79.30;;
33206;SDS011;19565;46.602;11.534;2023-08-24T10:33:13;78.07;;;74.68;;
33206;SDS011;19565;46.602;11.534;2023-08-24T10:35:42;83.70;;;79.70;;
33206;SDS011;19565;46.602;11.534;2023-08-24T10:38:22;79.13;;;75.70;;
33206;SDS011;19565;46.602;11.534;2023-08-24T10:40:52;78.60;;;74.82;;
33206;SDS011;19565;46.602;11.534;2023-08-24T10:43:23;79.40;;;75.30;;
33206;SDS011;19565;46.602;11.534;2023-08-24T10:45:54;77.13;;;73.72;;
33206;SDS011;19565;46.602;11.534;2023-08-24T10:48:27;75.53;;;71.22;;
33206;SDS011;19565;46.602;11.534;2023-08-24T10:53:52;74.60;;;71.20;;
33206;SDS011;19565;46.602;11.534;2023-08-24T10:56:21;74.43;;;71.10;;
33206;SDS011;19565;46.602;11.534;2023-08-24T10:59:11;77.85;;;74.35;;
33206;SDS011;19565;46.602;11.534;2023-08-24T11:01:40;77.68;;;74.18;;
33206;SDS011;19565;46.602;11.534;2023-08-24T11:04:10;77.57;;;73.85;;
33206;SDS011;19565;46.602;11.534;2023-08-24T11:06:52;78.88;;;75.07;;
33206;SDS011;19565;46.602;11.534;2023-08-24T11:09:21;79.20;;;75.70;;
33206;SDS011;19565;46.602;11.534;2023-08-24T11:11:57;78.28;;;74.75;;
33206;SDS011;19565;46.602;11.534;2023-08-24T11:14:27;74.15;;;70.13;;
33206;SDS011;19565;46.602;11.534;2023-08-24T11:16:57;77.72;;;74.20;;
33206;SDS011;19565;46.602;11.534;2023-08-24T11:19:26;75.57;;;71.10;;
33206;SDS011;19565;46.602;11.534;2023-08-24T11:21:56;76.50;;;73.00;;
33206;SDS011;19565;46.602;11.534;2023-08-24T11:24:25;75.65;;;72.25;;
33206;SDS011;19565;46.602;11.534;2023-08-24T11:26:54;72.78;;;69.57;;
33206;SDS011;19565;46.602;11.534;2023-08-24T11:29:24;74.90;;;71.43;;
33206;SDS011;19565;46.602;11.534;2023-08-24T11:31:53;75.28;;;71.85;;
33206;SDS011;19565;46.602;11.534;2023-08-24T11:34:21;74.22;;;70.25;;
33206;SDS011;19565;46.602;11.534;2023-08-24T11:36:49;74.20;;;70.80;;
33206;SDS011;19565;46.602;11.534;2023-08-24T11:39:18;74.78;;;71.30;;
33206;SDS011;19565;46.602;11.534;2023-08-24T11:41:59;72.85;;;69.30;;
33206;SDS011;19565;46.602;11.534;2023-08-24T11:44:27;77.13;;;73.47;;
33206;SDS011;19565;46.602;11.534;2023-08-24T11:46:57;75.95;;;72.40;;
33206;SDS011;19565;46.602;11.534;2023-08-24T11:49:26;75.25;;;72.05;;
33206;SDS011;19565;46.602;11.534;2023-08-24T11:51:54;79.22;;;75.53;;
33206;SDS011;19565;46.602;11.534;2023-08-24T11:54:22;81.22;;;77.28;;
33206;SDS011;19565;46.602;11.534;2023-08-24T11:56:51;79.20;;;75.60;;
33206;SDS011;19565;46.602;11.534;2023-08-24T11:59:19;78.57;;;74.88;;
33206;SDS011;19565;46.602;11.534;2023-08-24T12:01:48;80.03;;;76.25;;
33206;SDS011;19565;46.602;11.534;2023-08-24T12:04:17;78.55;;;74.97;;
33206;SDS011;19565;46.602;11.534;2023-08-24T12:06:45;79.90;;;75.47;;
33206;SDS011;19565;46.602;11.534;2023-08-24T12:09:13;80.32;;;76.70;;
33206;SDS011;19565;46.602;11.534;2023-08-24T12:11:42;77.40;;;73.90;;
33206;SDS011;19565;46.602;11.534;2023-08-24T12:14:16;74.03;;;70.72;;
33206;SDS011;19565;46.602;11.534;2023-08-24T12:16:44;77.00;;;73.50;;
33206;SDS011;19565;46.602;11.534;2023-08-24T12:19:13;82.22;;;78.40;;
33206;SDS011;19565;46.602;11.534;2023-08-24T12:21:44;72.55;;;69.18;;
33206;SDS011;19565;46.602;11.534;2023-08-24T12:24:13;75.50;;;71.63;;
33206;SDS011;19565;46.602;11.534;2023-08-24T12:26:41;73.03;;;69.80;;
33206;SDS011;19565;46.602;11.534;2023-08-24T12:29:09;72.90;;;69.57;;
33206;SDS011;19565;46.602;11.534;2023-08-24T12:31:40;71.18;;;67.75;;
33206;SDS011;19565;46.602;11.534;2023-08-24T12:34:10;69.18;;;65.97;;
33206;SDS011;19565;46.602;11.534;2023-08-24T12:36:41;70.22;;;66.78;;
33206;SDS011;19565;46.602;11.534;2023-08-24T12:39:11;69.57;;;66.30;;
33206;SDS011;19565;46.602;11.534;2023-08-24T12:41:40;70.35;;;67.22;;
33206;SDS011;19565;46.602;11.534;2023-08-24T12:44:08;70.85;;;67.63;;
33206;SDS011;19565;46.602;11.534;2023-08-24T12:46:40;69.82;;;66.45;;
33206;SDS011;19565;46.602;11.534;2023-08-24T12:49:08;69.38;;;66.22;;
33206;SDS011;19565;46.602;11.534;2023-08-24T12:51:36;67.03;;;63.78;;
33206;SDS011;19565;46.602;11.534;2023-08-24T12:54:05;69.57;;;66.28;;
33206;SDS011;19565;46.602;11.534;2023-08-24T12:56:38;70.00;;;66.70;;
33206;SDS011;19565;46.602;11.534;2023-08-24T12:59:07;70.25;;;66.93;;
33206;SDS011;19565;46.602;11.534;2023-08-24T13:01:35;69.05;;;65.82;;
33206;SDS011;19565;46.602;11.534;2023-08-24T13:04:03;72.20;;;68.70;;
33206;SDS011;19565;46.602;11.534;2023-08-24T13:06:32;69.05;;;65.80;;
33206;SDS011;19565;46.602;11.534;2023-08-24T13:09:00;70.68;;;67.05;;
33206;SDS011;19565;46.602;11.534;2023-08-24T13:11:28;70.00;;;66.60;;
33206;SDS011;19565;46.602;11.534;2023-08-24T13:13:57;70.25;;;66.80;;
33206;SDS011;19565;46.602;11.534;2023-08-24T13:16:25;70.35;;;67.00;;
33206;SDS011;19565;46.602;11.534;2023-08-24T13:18:54;74.57;;;70.85;;
33206;SDS011;19565;46.602;11.534;2023-08-24T13:21:24;75.15;;;71.70;;
33206;SDS011;19565;46.602;11.534;2023-08-24T13:23:53;73.15;;;69.72;;
33206;SDS011;19565;46.602;11.534;2023-08-24T13:26:21;70.70;;;67.30;;
33206;SDS011;19565;46.602;11.534;2023-08-24T13:28:50;71.65;;;67.10;;
33206;SDS011;19565;46.602;11.534;2023-08-24T13:31:19;72.03;;;68.72;;
33206;SDS011;19565;46.602;11.534;2023-08-24T13:33:47;69.65;;;66.40;;
33206;SDS011;19565;46.602;11.534;2023-08-24T13:36:15;70.65;;;67.40;;
33206;SDS011;19565;46.602;11.534;2023-08-24T13:38:43;68.45;;;65.40;;
33206;SDS011;19565;46.602;11.534;2023-08-24T13:41:12;70.30;;;66.45;;
33206;SDS011;19565;46.602;11.534;2023-08-24T13:43:40;65.68;;;61.90;;
33206;SDS011;19565;46.602;11.534;2023-08-24T13:46:08;68.18;;;64.75;;
33206;SDS011;19565;46.602;11.534;2023-08-24T13:48:38;66.85;;;63.08;;
33206;SDS011;19565;46.602;11.534;2023-08-24T13:51:06;66.32;;;62.88;;
33206;SDS011;19565;46.602;11.534;2023-08-24T13:53:34;77.90;;;73.75;;
33206;SDS011;19565;46.602;11.534;2023-08-24T13:56:03;65.25;;;61.65;;
33206;SDS011;19565;46.602;11.534;2023-08-24T13:58:32;65.20;;;62.05;;
33206;SDS011;19565;46.602;11.534;2023-08-24T14:01:00;65.13;;;62.13;;
33206;SDS011;19565;46.602;11.534;2023-08-24T14:03:29;64.97;;;61.22;;
33206;SDS011;19565;46.602;11.534;2023-08-24T14:05:59;67.30;;;63.05;;
33206;SDS011;19565;46.602;11.534;2023-08-24T14:08:28;66.43;;;62.85;;
33206;SDS011;19565;46.602;11.534;2023-08-24T14:10:56;74.28;;;70.53;;
33206;SDS011;19565;46.602;11.534;2023-08-24T14:13:24;65.63;;;62.45;;
33206;SDS011;19565;46.602;11.534;2023-08-24T14:15:52;75.00;;;71.20;;
33206;SDS011;19565;46.602;11.534;2023-08-24T14:18:20;73.80;;;69.40;;
33206;SDS011;19565;46.602;11.534;2023-08-24T14:20:48;68.82;;;65.53;;
33206;SDS011;19565;46.602;11.534;2023-08-24T14:23:17;65.10;;;61.72;;
33206;SDS011;19565;46.602;11.534;2023-08-24T14:25:46;67.85;;;64.40;;
33206;SDS011;19565;46.602;11.534;2023-08-24T14:28:20;67.10;;;63.65;;
33206;SDS011;19565;46.602;11.534;2023-08-24T14:30:49;63.03;;;60.05;;
33206;SDS011;19565;46.602;11.534;2023-08-24T14:33:17;65.07;;;61.50;;